Hovedside
METAR-TAF:

METAR-TAF

Lufthavner :

Vasa lufthavn

Vasa, Finland

breddegrad: 63-03N, lengdegrad: 021-46E, høyde over havet: 4 m

Gjeldene værobservasjon

Denne rapporten ble laget for 28 minutter siden, klokken 18:20 UTC
Vind 7 kt fra Sør
Temperatur -4°C
Luftfuktighet 93%
Trykk 1037 hPa
Sikt 10 km eller mer

METAR: EFVA 191820Z AUTO 19007KT 9999 BKN015/// M04/M05 Q1037

Tid: 20:48 (18:48 UTC)

Varsel

Denne rapporten ble laget for 1 time og 10 minutter siden, klokken 17:38 UTC
Varsel gyldig fra 19. klokken 18 UTC til 20. klokken 18 UTC
Vind 4 kt fra Sør-sørvest
Sikt 10 km eller mer
ingen skyer under 1500 m og ingen bygeskyer
Sannsynlighet 30%
fra 19. klokken 21 UTC til 20. klokken 02 UTC
Brutte skyer i en høyde av 1000 ft

TAF: EFVA 191738Z 1918/2018 20004KT CAVOK PROB30 1921/2002 BKN010

Værobservasjoner og værvarsel for over 4000 flyplasser (METAR- og TAF-rapporter).

Tilgjengelige stasjoner er representert av de røde og gule prikkene på kartet.

Hold musepekeren over prikken for å se navnet på stasjonen.

Klikk så for å se værobservasjoner og -varsler.

For å forandre kartet kan du klikke på den grønne knappen med svart kryss for å zoome inn, på den grønne knappen med strek for å zoome ut, eller på de grønne pilene for å se tilstøtende kart.


METAR-TAF: